Time;durP1;ratioP1;P1;durP2;ratioP2;P2;SDS_P1;SDS_P2;PMS_P1;PMS_P2;Temp;Humidity;BMP_temperature;BMP_pressure;BME280_temperature;BME280_humidity;BME280_pressure;Samples;Min_cycle;Max_cycle;Signal;HPM_P1;HPM_P2
2022/10/02 00:02:39;;;;;;;3.55;1.20;;;13.80;99.90;;;;;;5080889;28;20500;-80
2022/10/02 00:05:09;;;;;;;3.00;1.05;;;13.80;99.90;;;;;;5080597;28;20052;-80
2022/10/02 00:08:05;;;;;;;2.75;0.70;;;13.70;99.90;;;;;;5081564;28;20402;-80
2022/10/02 00:10:40;;;;;;;1.85;0.80;;;13.70;99.90;;;;;;5067441;28;20059;-80
2022/10/02 00:13:08;;;;;;;2.67;0.75;;;13.70;99.90;;;;;;5065694;28;20056;-80
2022/10/02 00:15:35;;;;;;;0.90;0.52;;;13.70;99.90;;;;;;5081774;28;20059;-80
2022/10/02 00:18:06;;;;;;;1.70;0.80;;;13.70;99.90;;;;;;5047622;28;20048;-80
2022/10/02 00:20:45;;;;;;;3.25;1.05;;;13.70;99.90;;;;;;5048321;28;20487;-80
2022/10/02 00:23:22;;;;;;;2.92;1.30;;;13.70;99.90;;;;;;5049172;28;20056;-80
2022/10/02 00:25:55;;;;;;;3.13;0.85;;;13.70;99.90;;;;;;5065123;28;20052;-80
2022/10/02 00:28:24;;;;;;;2.50;0.80;;;13.70;99.90;;;;;;5049114;28;20044;-80
2022/10/02 00:31:23;;;;;;;4.75;1.20;;;13.70;99.90;;;;;;5065792;28;20097;-80
2022/10/02 00:33:57;;;;;;;2.00;0.95;;;13.70;99.90;;;;;;5062279;28;20055;-80
2022/10/02 00:36:42;;;;;;;2.10;1.23;;;13.70;99.90;;;;;;5086471;28;20055;-79
2022/10/02 00:39:23;;;;;;;2.13;1.05;;;13.70;99.90;;;;;;5085021;28;20044;-79
2022/10/02 00:41:59;;;;;;;2.72;0.90;;;13.70;99.90;;;;;;5070001;28;20059;-80
2022/10/02 00:44:40;;;;;;;1.27;0.60;;;13.60;99.90;;;;;;5086676;28;20040;-80
2022/10/02 00:47:53;;;;;;;1.85;0.65;;;13.60;99.90;;;;;;5086247;28;20067;-80
2022/10/02 00:50:34;;;;;;;2.28;0.50;;;13.60;99.90;;;;;;5043600;28;20114;-79
2022/10/02 00:53:33;;;;;;;0.55;0.38;;;13.60;99.90;;;;;;5022728;28;20206;-86
2022/10/02 00:56:21;;;;;;;0.95;0.50;;;13.60;99.90;;;;;;5053626;28;20044;-90
2022/10/02 00:58:59;;;;;;;1.73;0.50;;;13.50;99.90;;;;;;5049193;28;20129;-90
2022/10/02 01:01:47;;;;;;;0.70;0.45;;;13.60;99.90;;;;;;5050746;28;20056;-88
2022/10/02 01:04:19;;;;;;;1.50;0.47;;;13.60;99.90;;;;;;5052282;28;20044;-87
2022/10/02 01:06:46;;;;;;;0.60;0.38;;;13.50;99.90;;;;;;5044111;28;20080;-86
2022/10/02 01:09:13;;;;;;;1.00;0.55;;;13.60;99.90;;;;;;5043633;28;20448;-90
2022/10/02 01:11:39;;;;;;;1.08;0.45;;;13.60;99.90;;;;;;5066652;28;20036;-90
2022/10/02 01:14:06;;;;;;;2.95;0.70;;;13.60;99.90;;;;;;5066312;28;20052;-89
2022/10/02 01:16:33;;;;;;;2.60;0.65;;;13.60;99.90;;;;;;5043969;28;20044;-91
2022/10/02 01:19:00;;;;;;;0.60;0.40;;;13.60;99.90;;;;;;5063001;28;20052;-89
2022/10/02 01:21:36;;;;;;;0.80;0.40;;;13.60;99.90;;;;;;5076773;28;20048;-91
2022/10/02 01:24:17;;;;;;;1.00;0.47;;;13.60;99.90;;;;;;5083366;28;20048;-91
2022/10/02 01:26:44;;;;;;;0.95;0.50;;;13.60;99.90;;;;;;5072600;28;20133;-90
2022/10/02 01:29:11;;;;;;;1.35;0.40;;;13.60;99.90;;;;;;5055840;28;20131;-89
2022/10/02 01:31:38;;;;;;;0.70;0.40;;;13.60;99.90;;;;;;5067526;28;20044;-89
2022/10/02 01:34:04;;;;;;;0.57;0.40;;;13.60;99.90;;;;;;5046976;28;20469;-89
2022/10/02 01:36:31;;;;;;;0.63;0.40;;;13.60;99.90;;;;;;5072560;28;20139;-88
2022/10/02 01:38:58;;;;;;;0.38;0.32;;;13.60;99.90;;;;;;5052219;28;20128;-90
2022/10/02 01:41:25;;;;;;;1.73;0.55;;;13.60;99.90;;;;;;5055818;28;20095;-89
2022/10/02 01:43:59;;;;;;;0.57;0.40;;;13.60;99.90;;;;;;5052121;28;20630;-89
2022/10/02 01:46:29;;;;;;;0.30;0.30;;;13.60;99.90;;;;;;5036646;28;20072;-90
2022/10/02 01:49:15;;;;;;;0.98;0.60;;;13.60;99.90;;;;;;5068885;28;20048;-89
2022/10/02 01:51:55;;;;;;;1.05;0.40;;;13.60;99.90;;;;;;5072462;28;20082;-89
2022/10/02 01:54:59;;;;;;;0.50;0.40;;;13.60;99.90;;;;;;5071381;28;20523;-89
2022/10/02 01:57:30;;;;;;;0.30;0.30;;;13.60;99.90;;;;;;5073180;28;20397;-90
2022/10/02 02:00:17;;;;;;;1.50;0.70;;;13.60;99.90;;;;;;5073194;28;20128;-90
2022/10/02 02:02:50;;;;;;;0.57;0.25;;;13.60;99.90;;;;;;5071885;28;20048;-89
2022/10/02 02:05:23;;;;;;;0.43;0.35;;;13.60;99.90;;;;;;5072560;28;20399;-90
2022/10/02 02:08:07;;;;;;;1.35;0.50;;;13.70;99.90;;;;;;5071957;28;20072;-90
2022/10/02 02:10:45;;;;;;;0.57;0.38;;;13.70;99.90;;;;;;5054948;28;20061;-90
2022/10/02 02:13:20;;;;;;;1.30;0.50;;;13.70;99.90;;;;;;5078991;28;20451;-89
2022/10/02 02:16:02;;;;;;;0.45;0.40;;;13.60;99.90;;;;;;5071774;28;20495;-90
2022/10/02 02:18:33;;;;;;;0.93;0.53;;;13.70;99.90;;;;;;5051279;28;20421;-90
2022/10/02 02:21:05;;;;;;;0.70;0.45;;;13.70;99.90;;;;;;5050338;28;20510;-91
2022/10/02 02:23:33;;;;;;;1.45;0.35;;;13.70;99.90;;;;;;5051178;28;20057;-89
2022/10/02 02:26:03;;;;;;;1.77;0.65;;;13.70;99.90;;;;;;5050697;28;20056;-90
2022/10/02 02:28:30;;;;;;;3.58;0.93;;;13.70;99.90;;;;;;5055003;28;20059;-90
2022/10/02 02:30:57;;;;;;;1.98;0.70;;;13.70;99.90;;;;;;5051553;28;20584;-90
2022/10/02 02:33:32;;;;;;;3.45;1.00;;;13.60;99.90;;;;;;5069848;28;20479;-89
2022/10/02 02:36:02;;;;;;;2.45;0.50;;;13.70;99.90;;;;;;5042841;28;20063;-88
2022/10/02 02:38:36;;;;;;;1.23;0.65;;;13.70;99.90;;;;;;5050554;28;20055;-88
2022/10/02 02:41:15;;;;;;;1.77;1.00;;;13.70;99.90;;;;;;5065958;28;20045;-89
2022/10/02 02:44:10;;;;;;;1.83;0.80;;;13.70;99.90;;;;;;5050118;28;20085;-90
2022/10/02 02:49:48;;;;;;;2.15;0.82;;;13.70;99.90;;;;;;5043845;28;20050;-89
2022/10/02 02:52:21;;;;;;;2.83;0.98;;;13.70;99.90;;;;;;5062562;28;20048;-89
2022/10/02 02:54:58;;;;;;;0.43;0.30;;;13.70;99.90;;;;;;5089394;28;20048;-88
2022/10/02 02:57:29;;;;;;;1.42;0.60;;;13.70;99.90;;;;;;5035789;28;20056;-89
2022/10/02 02:59:56;;;;;;;0.98;0.55;;;13.70;99.90;;;;;;5048473;28;20053;-89
2022/10/02 03:02:23;;;;;;;1.35;0.60;;;13.80;99.90;;;;;;5033335;28;20111;-89
2022/10/02 03:04:50;;;;;;;1.23;0.70;;;13.70;99.90;;;;;;5071504;28;20782;-88
2022/10/02 03:07:17;;;;;;;0.68;0.30;;;13.70;99.90;;;;;;5077674;28;20045;-89
2022/10/02 03:10:05;;;;;;;0.38;0.38;;;13.70;99.90;;;;;;5075576;28;20036;-89
2022/10/02 03:13:11;;;;;;;1.73;0.60;;;13.70;99.90;;;;;;5076232;28;20056;-88
2022/10/02 03:15:57;;;;;;;1.75;0.50;;;13.70;99.90;;;;;;5060023;28;21668;-88
2022/10/02 03:18:56;;;;;;;0.95;0.60;;;13.70;99.90;;;;;;5069665;28;20044;-89
2022/10/02 03:21:34;;;;;;;2.40;0.60;;;13.70;99.90;;;;;;5059778;28;20040;-89
2022/10/02 03:24:12;;;;;;;0.77;0.52;;;13.70;99.90;;;;;;5049347;28;20053;-88
2022/10/02 03:26:44;;;;;;;0.73;0.60;;;13.70;99.90;;;;;;5048528;28;20471;-89
2022/10/02 03:29:24;;;;;;;2.35;0.70;;;13.70;99.90;;;;;;5040843;28;20060;-89
2022/10/02 03:31:51;;;;;;;0.77;0.45;;;13.70;99.90;;;;;;5049461;28;20062;-88
2022/10/02 03:34:18;;;;;;;2.88;0.70;;;13.80;99.90;;;;;;5031341;28;20147;-88
2022/10/02 03:36:44;;;;;;;2.22;0.70;;;13.70;99.90;;;;;;5063688;28;20060;-88
2022/10/02 03:39:11;;;;;;;1.80;0.68;;;13.70;99.90;;;;;;5052592;28;20047;-88
2022/10/02 03:41:50;;;;;;;1.20;0.60;;;13.70;99.90;;;;;;5039441;28;20491;-88
2022/10/02 03:44:17;;;;;;;1.25;0.60;;;13.80;99.90;;;;;;5048955;28;20051;-88
2022/10/02 03:46:44;;;;;;;1.15;0.52;;;13.80;99.90;;;;;;5050048;28;20052;-87
2022/10/02 03:49:11;;;;;;;1.17;0.60;;;13.70;99.90;;;;;;5065433;28;20052;-88
2022/10/02 03:51:37;;;;;;;0.55;0.55;;;13.80;99.90;;;;;;5064592;28;20048;-87
2022/10/02 03:54:12;;;;;;;0.68;0.40;;;13.80;99.90;;;;;;5067566;28;20055;-86
2022/10/02 03:56:53;;;;;;;1.02;0.40;;;13.80;99.90;;;;;;5052807;28;20403;-87
2022/10/02 03:59:47;;;;;;;1.63;0.50;;;13.80;99.90;;;;;;5049492;28;20069;-88
2022/10/02 04:02:37;;;;;;;0.65;0.50;;;13.80;99.90;;;;;;5049286;28;20573;-88
2022/10/02 04:05:16;;;;;;;1.25;0.50;;;13.80;99.90;;;;;;5071020;28;20087;-88
2022/10/02 04:07:43;;;;;;;2.03;0.68;;;13.80;99.90;;;;;;5069081;28;20059;-89
2022/10/02 04:10:37;;;;;;;1.02;0.60;;;13.80;99.90;;;;;;5043523;28;20110;-88
2022/10/02 04:13:23;;;;;;;1.40;0.50;;;13.80;99.90;;;;;;5069041;28;20051;-88
2022/10/02 04:15:55;;;;;;;0.93;0.60;;;13.80;99.90;;;;;;5041127;28;20063;-87
2022/10/02 04:18:29;;;;;;;1.00;0.55;;;13.80;99.90;;;;;;5064803;28;20048;-88
2022/10/02 04:20:58;;;;;;;0.82;0.47;;;13.80;99.90;;;;;;5026778;28;20055;-88
2022/10/02 04:23:31;;;;;;;0.43;0.40;;;13.90;99.90;;;;;;5053239;28;20048;-88
2022/10/02 04:26:06;;;;;;;1.40;0.50;;;13.80;99.90;;;;;;5049500;28;20055;-88
2022/10/02 04:28:41;;;;;;;0.93;0.52;;;13.80;99.90;;;;;;5028978;28;20053;-89
2022/10/02 04:31:11;;;;;;;1.13;0.57;;;13.90;99.90;;;;;;5035030;28;20080;-87
2022/10/02 04:33:38;;;;;;;1.10;0.55;;;13.90;99.90;;;;;;5051487;28;20613;-88
2022/10/02 04:36:32;;;;;;;0.88;0.40;;;13.90;99.90;;;;;;5051967;28;20048;-88
2022/10/02 04:39:26;;;;;;;0.75;0.50;;;13.90;99.90;;;;;;5053861;28;20064;-88
2022/10/02 04:42:05;;;;;;;1.15;0.40;;;13.90;99.90;;;;;;5064553;28;20060;-89
2022/10/02 04:44:43;;;;;;;0.30;0.30;;;13.90;99.90;;;;;;5065626;28;20054;-89
2022/10/02 04:47:36;;;;;;;0.55;0.40;;;13.90;99.90;;;;;;5067654;28;20507;-87
2022/10/02 04:50:25;;;;;;;0.40;0.30;;;13.80;99.90;;;;;;5064815;28;20052;-88
2022/10/02 04:53:10;;;;;;;2.47;0.70;;;13.90;99.90;;;;;;5066220;28;20131;-88
2022/10/02 04:55:42;;;;;;;1.92;0.43;;;13.80;99.90;;;;;;5047581;28;20432;-86
2022/10/02 04:58:27;;;;;;;2.50;0.93;;;13.80;99.90;;;;;;5052627;28;20504;-89
2022/10/02 05:01:21;;;;;;;1.90;0.70;;;13.90;99.90;;;;;;5064316;28;20047;-88
2022/10/02 05:04:06;;;;;;;0.68;0.50;;;13.90;99.90;;;;;;5067135;28;20053;-87
2022/10/02 05:07:05;;;;;;;1.08;0.63;;;13.80;99.90;;;;;;5051703;28;20045;-88
2022/10/02 05:09:36;;;;;;;2.42;0.63;;;13.80;99.90;;;;;;5053024;28;20059;-86
2022/10/02 05:12:22;;;;;;;1.02;0.47;;;13.80;99.90;;;;;;5058185;28;20074;-88
2022/10/02 05:15:17;;;;;;;1.00;0.45;;;13.80;99.90;;;;;;5067023;28;20128;-87
2022/10/02 05:18:06;;;;;;;1.35;0.52;;;13.80;99.90;;;;;;5072173;28;20048;-88
2022/10/02 05:20:39;;;;;;;1.45;0.50;;;13.80;99.90;;;;;;5044078;28;20499;-86
2022/10/02 05:23:22;;;;;;;1.98;0.50;;;13.80;99.90;;;;;;5067419;28;20056;-88
2022/10/02 05:26:07;;;;;;;1.27;0.60;;;13.80;99.90;;;;;;5062903;28;20045;-88
2022/10/02 05:28:46;;;;;;;0.65;0.32;;;13.80;99.90;;;;;;5063378;28;20072;-89
2022/10/02 05:31:41;;;;;;;0.80;0.40;;;13.80;99.90;;;;;;5066305;28;20048;-88
2022/10/02 05:34:26;;;;;;;0.47;0.40;;;13.80;99.90;;;;;;5070476;28;20048;-89
2022/10/02 05:37:10;;;;;;;0.45;0.40;;;13.80;99.90;;;;;;5052063;28;20056;-88
2022/10/02 05:39:59;;;;;;;0.93;0.60;;;13.80;99.90;;;;;;5071701;28;20052;-88
2022/10/02 05:42:34;;;;;;;0.32;0.20;;;13.80;99.90;;;;;;5070570;28;20040;-88
2022/10/02 05:45:11;;;;;;;0.10;0.10;;;13.80;99.90;;;;;;5051563;28;20056;-87
2022/10/02 05:47:40;;;;;;;0.50;0.23;;;13.90;99.90;;;;;;5063259;28;20672;-88
2022/10/02 05:50:17;;;;;;;0.28;0.20;;;13.90;99.90;;;;;;5029245;28;20068;-88
2022/10/02 05:52:54;;;;;;;0.43;0.20;;;13.90;99.90;;;;;;5062476;28;20067;-89
2022/10/02 05:55:39;;;;;;;0.28;0.20;;;13.80;99.90;;;;;;5061497;28;20135;-89
2022/10/02 05:58:20;;;;;;;0.73;0.40;;;13.80;99.90;;;;;;5068164;28;20091;-87
2022/10/02 06:01:09;;;;;;;0.35;0.30;;;13.80;99.90;;;;;;5067662;28;20045;-88
2022/10/02 06:04:00;;;;;;;0.65;0.40;;;13.80;99.90;;;;;;5071557;28;20050;-89
2022/10/02 06:06:35;;;;;;;0.47;0.38;;;13.80;99.90;;;;;;5043620;28;20412;-88
2022/10/02 06:09:04;;;;;;;0.77;0.45;;;13.80;99.90;;;;;;5061585;28;20044;-88
2022/10/02 06:11:34;;;;;;;0.73;0.55;;;13.80;99.90;;;;;;5057787;28;20055;-90
2022/10/02 06:14:13;;;;;;;1.95;0.50;;;13.70;99.90;;;;;;5051246;28;20074;-89
2022/10/02 06:16:51;;;;;;;1.52;0.70;;;13.80;99.90;;;;;;5036751;28;20056;-90
2022/10/02 06:19:41;;;;;;;1.10;0.60;;;13.70;99.90;;;;;;5068467;28;20049;-90
2022/10/02 06:22:23;;;;;;;1.17;0.50;;;13.80;99.90;;;;;;5037746;28;20049;-89
2022/10/02 06:25:11;;;;;;;0.63;0.50;;;13.80;99.90;;;;;;5045508;28;20049;-89
2022/10/02 06:27:42;;;;;;;0.60;0.40;;;13.80;99.90;;;;;;5058968;28;20411;-88
2022/10/02 06:30:10;;;;;;;0.68;0.45;;;13.80;99.90;;;;;;5051988;28;20076;-90
2022/10/02 06:32:41;;;;;;;0.65;0.50;;;13.80;99.90;;;;;;5055805;28;20047;-88
2022/10/02 06:35:11;;;;;;;0.40;0.32;;;13.80;99.90;;;;;;5054971;28;20052;-89
2022/10/02 06:38:00;;;;;;;0.57;0.35;;;13.80;99.90;;;;;;5036724;28;20056;-90
2022/10/02 06:40:58;;;;;;;0.50;0.50;;;13.90;99.90;;;;;;5037956;28;20049;-90
2022/10/02 06:43:47;;;;;;;0.47;0.40;;;13.90;99.90;;;;;;5065761;28;20443;-89
2022/10/02 06:46:58;;;;;;;1.70;0.68;;;13.80;99.90;;;;;;5058000;28;20056;-90
2022/10/02 06:49:52;;;;;;;0.80;0.70;;;13.90;99.90;;;;;;5045519;28;20053;-88
2022/10/02 06:52:21;;;;;;;0.60;0.47;;;13.90;99.90;;;;;;5065757;28;20052;-88
2022/10/02 06:54:51;;;;;;;0.63;0.50;;;13.90;99.90;;;;;;5071613;28;20052;-90
2022/10/02 06:57:29;;;;;;;1.13;0.68;;;13.90;99.90;;;;;;5071524;28;20049;-88
2022/10/02 07:00:11;;;;;;;3.33;0.82;;;13.90;99.90;;;;;;5035787;28;20079;-88
2022/10/02 07:02:50;;;;;;;0.85;0.60;;;13.90;99.90;;;;;;5070219;28;20135;-89
2022/10/02 07:05:23;;;;;;;0.70;0.40;;;13.90;99.90;;;;;;5066503;28;20046;-89
2022/10/02 07:08:04;;;;;;;2.17;0.75;;;13.90;99.90;;;;;;5068272;28;20076;-90
2022/10/02 07:10:34;;;;;;;0.85;0.52;;;13.80;99.90;;;;;;5067578;28;20109;-89
2022/10/02 07:13:16;;;;;;;0.85;0.52;;;13.90;99.90;;;;;;5063202;28;20094;-88
2022/10/02 07:16:21;;;;;;;0.98;0.50;;;13.90;99.90;;;;;;5068020;28;20617;-90
2022/10/02 07:19:24;;;;;;;0.98;0.45;;;13.90;99.90;;;;;;5058705;28;20074;-86
2022/10/02 07:22:02;;;;;;;1.08;0.60;;;13.90;99.90;;;;;;5046688;28;20045;-88
2022/10/02 07:25:01;;;;;;;0.82;0.30;;;13.90;99.90;;;;;;5062216;28;20479;-87
2022/10/02 07:27:50;;;;;;;0.55;0.47;;;14.00;99.90;;;;;;5064041;28;20050;-89
2022/10/02 07:30:16;;;;;;;0.55;0.45;;;14.00;99.90;;;;;;5072853;28;20050;-89
2022/10/02 07:32:50;;;;;;;1.05;0.50;;;14.00;99.90;;;;;;5030211;28;20044;-88
2022/10/02 07:35:33;;;;;;;1.25;0.60;;;14.10;99.90;;;;;;5049389;28;20040;-89
2022/10/02 07:38:43;;;;;;;1.77;0.60;;;14.10;99.90;;;;;;5060004;28;20055;-87
2022/10/02 07:41:30;;;;;;;0.50;0.40;;;14.10;99.90;;;;;;5061452;28;20052;-88
2022/10/02 07:44:48;;;;;;;1.25;0.77;;;14.10;99.90;;;;;;5055524;28;20068;-89
2022/10/02 07:47:15;;;;;;;0.68;0.32;;;14.10;99.90;;;;;;5040405;28;20400;-89
2022/10/02 07:50:14;;;;;;;1.30;0.65;;;14.10;99.90;;;;;;5071138;28;20075;-89
2022/10/02 07:53:03;;;;;;;1.42;0.50;;;14.10;99.90;;;;;;5073398;28;20056;-89
2022/10/02 07:55:30;;;;;;;0.60;0.60;;;14.10;99.90;;;;;;5061864;28;20092;-88
2022/10/02 07:58:00;;;;;;;0.98;0.65;;;14.10;99.90;;;;;;5053376;28;20052;-89
2022/10/02 08:00:29;;;;;;;2.38;0.80;;;14.10;99.90;;;;;;5066049;28;20049;-87
2022/10/02 08:02:59;;;;;;;1.88;0.70;;;14.10;99.90;;;;;;5050066;28;20052;-89
2022/10/02 08:05:32;;;;;;;1.40;0.68;;;14.20;99.90;;;;;;5049539;28;20667;-88
2022/10/02 08:08:03;;;;;;;0.82;0.55;;;14.20;99.90;;;;;;5047804;28;20052;-88
2022/10/02 08:10:37;;;;;;;1.65;0.68;;;14.20;99.90;;;;;;5052205;28;20060;-89
2022/10/02 08:13:14;;;;;;;1.33;0.60;;;14.30;99.90;;;;;;5056386;28;20153;-88
2022/10/02 08:15:41;;;;;;;1.55;0.55;;;14.30;99.90;;;;;;5058560;28;20049;-89
2022/10/02 08:18:26;;;;;;;1.10;0.40;;;14.30;99.90;;;;;;5056761;28;20052;-86
2022/10/02 08:21:01;;;;;;;1.95;0.80;;;14.30;99.90;;;;;;5047022;28;20656;-88
2022/10/02 08:23:38;;;;;;;2.00;0.85;;;14.30;99.90;;;;;;5047790;28;20044;-94
2022/10/02 08:26:12;;;;;;;1.33;0.57;;;14.30;99.90;;;;;;5052116;28;20052;-91
2022/10/02 08:29:13;;;;;;;1.23;0.60;;;14.40;99.90;;;;;;5053171;28;20112;-90
2022/10/02 08:31:39;;;;;;;1.08;0.60;;;14.40;99.90;;;;;;5034488;28;20071;-90
2022/10/02 08:34:16;;;;;;;1.60;0.50;;;14.40;99.90;;;;;;5042913;28;20064;-89
2022/10/02 08:37:03;;;;;;;0.95;0.50;;;14.40;99.90;;;;;;5042976;28;20056;-90
2022/10/02 08:39:49;;;;;;;0.63;0.63;;;14.50;99.90;;;;;;5041400;28;20048;-91
2022/10/02 08:42:44;;;;;;;0.40;0.40;;;14.50;99.90;;;;;;5051325;28;20051;-91
2022/10/02 08:45:14;;;;;;;1.55;0.60;;;14.60;99.90;;;;;;5054592;28;20472;-92
2022/10/02 08:48:04;;;;;;;0.90;0.60;;;14.60;99.90;;;;;;5055291;28;20156;-92
2022/10/02 08:51:08;;;;;;;1.02;0.73;;;14.60;99.90;;;;;;5061347;28;20139;-92
2022/10/02 08:53:34;;;;;;;1.80;0.70;;;14.60;99.90;;;;;;5066334;28;20055;-92
2022/10/02 08:56:08;;;;;;;1.33;0.60;;;14.60;99.90;;;;;;5061049;28;20045;-91
2022/10/02 08:58:56;;;;;;;0.55;0.35;;;14.70;99.90;;;;;;5054163;28;20060;-92
2022/10/02 09:01:52;;;;;;;1.80;0.55;;;14.80;99.90;;;;;;5057448;28;20045;-91
2022/10/02 09:04:43;;;;;;;2.63;0.85;;;14.90;99.90;;;;;;5058404;28;20620;-91
2022/10/02 09:07:41;;;;;;;0.82;0.50;;;15.00;99.90;;;;;;5046844;28;20049;-92
2022/10/02 09:10:46;;;;;;;6.40;1.40;;;15.10;99.90;;;;;;5063460;28;20059;-88
2022/10/02 09:13:22;;;;;;;1.77;0.70;;;15.10;99.90;;;;;;5065183;28;20044;-91
2022/10/02 09:16:28;;;;;;;2.15;0.70;;;15.10;99.90;;;;;;5056491;28;20419;-91
2022/10/02 09:19:02;;;;;;;1.85;0.80;;;15.20;99.90;;;;;;5060798;28;20364;-87
2022/10/02 09:21:29;;;;;;;1.13;0.70;;;15.30;99.90;;;;;;5064594;28;20063;-92
2022/10/02 09:24:42;;;;;;;1.40;0.75;;;15.40;99.90;;;;;;5067938;28;20052;-92
2022/10/02 09:27:27;;;;;;;1.63;1.02;;;15.50;99.90;;;;;;5057156;28;20056;-92
2022/10/02 09:30:02;;;;;;;1.27;0.60;;;15.50;99.90;;;;;;5067943;28;20094;-91
2022/10/02 09:32:59;;;;;;;1.63;0.88;;;15.50;99.90;;;;;;5053293;28;20052;-90
2022/10/02 09:35:52;;;;;;;1.23;0.68;;;15.60;99.90;;;;;;5060650;28;20060;-90
2022/10/02 09:38:28;;;;;;;2.00;0.70;;;15.70;99.90;;;;;;5060920;28;20068;-88
2022/10/02 09:41:59;;;;;;;4.15;0.98;;;15.80;99.90;;;;;;5062554;28;20044;-88
2022/10/02 09:44:44;;;;;;;2.40;0.93;;;15.80;99.90;;;;;;4985490;28;20076;-91
2022/10/02 09:47:42;;;;;;;1.95;0.93;;;15.80;99.90;;;;;;4987024;28;20136;-92
2022/10/02 09:50:30;;;;;;;1.20;0.65;;;15.90;99.90;;;;;;5047444;28;20601;-91
2022/10/02 09:53:03;;;;;;;1.33;0.70;;;16.10;99.90;;;;;;5069920;28;20082;-92
2022/10/02 09:55:56;;;;;;;0.75;0.60;;;16.10;99.90;;;;;;5067660;28;20055;-92
2022/10/02 09:58:49;;;;;;;1.00;0.70;;;16.10;99.90;;;;;;5067200;28;20059;-90
2022/10/02 10:02:03;;;;;;;0.43;0.43;;;16.10;99.90;;;;;;5047077;28;20483;-89
2022/10/02 10:04:53;;;;;;;1.52;0.80;;;16.20;99.90;;;;;;5054676;28;20072;-88
2022/10/02 10:07:53;;;;;;;1.83;0.80;;;16.30;99.90;;;;;;5042012;28;20053;-89
2022/10/02 10:10:55;;;;;;;1.30;0.65;;;16.30;99.90;;;;;;5073144;28;20045;-89
2022/10/02 10:13:54;;;;;;;2.08;0.82;;;16.40;99.90;;;;;;5046366;28;20301;-88
2022/10/02 10:16:29;;;;;;;1.77;0.80;;;16.40;99.90;;;;;;5055558;28;20484;-89
2022/10/02 10:19:03;;;;;;;3.95;1.27;;;16.30;99.90;;;;;;5059044;28;20109;-88
2022/10/02 10:22:08;;;;;;;2.15;0.95;;;16.20;99.90;;;;;;5048482;28;20786;-85
2022/10/02 10:24:42;;;;;;;1.50;1.13;;;16.30;99.90;;;;;;5055048;28;20053;-87
2022/10/02 10:27:30;;;;;;;2.25;0.73;;;16.40;99.90;;;;;;5048862;28;20048;-89
2022/10/02 10:30:28;;;;;;;1.38;0.80;;;16.60;99.90;;;;;;5048281;28;20084;-89
2022/10/02 10:33:36;;;;;;;1.27;0.65;;;16.70;99.90;;;;;;5054754;28;20461;-89
2022/10/02 10:39:31;;;;;;;2.95;1.30;;;16.80;99.90;;;;;;5057667;28;20044;-88
2022/10/02 10:42:04;;;;;;;2.45;1.00;;;16.90;99.90;;;;;;5062350;28;20044;-88
2022/10/02 10:44:58;;;;;;;2.58;1.30;;;17.00;99.90;;;;;;5063310;28;20132;-88
2022/10/02 10:47:42;;;;;;;2.35;0.85;;;17.00;99.90;;;;;;5059759;28;20124;-83
2022/10/02 10:50:45;;;;;;;1.90;0.93;;;17.00;99.90;;;;;;5046473;28;20069;-88
2022/10/02 10:53:27;;;;;;;2.08;1.00;;;17.20;99.90;;;;;;5057762;28;20488;-89
2022/10/02 10:56:36;;;;;;;1.38;0.82;;;17.20;99.90;;;;;;5057711;28;20040;-89
2022/10/02 10:59:22;;;;;;;1.33;0.95;;;17.30;99.90;;;;;;5036478;28;20053;-90
2022/10/02 11:02:14;;;;;;;0.47;0.47;;;17.30;99.90;;;;;;5017583;28;20465;-90
2022/10/02 11:04:51;;;;;;;1.05;0.57;;;17.50;99.90;;;;;;5034634;28;20057;-89
2022/10/02 11:07:39;;;;;;;1.13;0.60;;;17.60;99.90;;;;;;5054801;28;20405;-88
2022/10/02 11:10:29;;;;;;;1.45;0.75;;;17.60;99.90;;;;;;5040660;28;20453;-89
2022/10/02 11:13:28;;;;;;;2.22;0.98;;;17.60;99.90;;;;;;5066740;28;20048;-88
2022/10/02 11:15:58;;;;;;;1.88;0.88;;;17.50;99.90;;;;;;5059867;28;20411;-87
2022/10/02 11:18:44;;;;;;;1.85;0.75;;;17.30;99.90;;;;;;5058545;28;20576;-88
2022/10/02 11:21:50;;;;;;;2.25;0.80;;;17.30;99.90;;;;;;5063698;28;20147;-89
2022/10/02 11:24:27;;;;;;;0.98;0.65;;;17.30;99.90;;;;;;5063355;28;20056;-89
2022/10/02 11:27:29;;;;;;;1.98;1.00;;;17.60;99.90;;;;;;5057196;28;20056;-89
2022/10/02 11:30:08;;;;;;;2.60;0.95;;;17.70;99.90;;;;;;5047304;28;20056;-90
2022/10/02 11:32:58;;;;;;;1.52;0.80;;;18.10;99.90;;;;;;5055017;28;20083;-88
2022/10/02 11:35:50;;;;;;;1.30;0.93;;;18.50;99.90;;;;;;5048596;28;20056;-89
2022/10/02 11:38:37;;;;;;;2.13;1.00;;;18.80;99.90;;;;;;5050637;28;20052;-89
2022/10/02 11:41:28;;;;;;;2.35;1.13;;;18.80;99.90;;;;;;5044872;28;20068;-89
2022/10/02 11:44:10;;;;;;;2.25;1.13;;;18.70;99.90;;;;;;5064982;28;20048;-89
2022/10/02 11:46:54;;;;;;;4.20;1.90;;;18.50;99.90;;;;;;5042444;28;20045;-90
2022/10/02 11:49:33;;;;;;;1.52;1.02;;;18.30;99.90;;;;;;5051247;28;20056;-87
2022/10/02 11:52:19;;;;;;;3.08;1.10;;;18.40;99.90;;;;;;5053722;28;20131;-90
2022/10/02 11:55:03;;;;;;;1.70;0.77;;;18.50;99.90;;;;;;5038127;28;20144;-86
2022/10/02 11:57:46;;;;;;;3.65;1.13;;;18.90;99.90;;;;;;5022722;28;20586;-81
2022/10/02 12:00:50;;;;;;;2.97;1.17;;;19.10;99.90;;;;;;5051415;28;20061;-81
2022/10/02 12:03:29;;;;;;;1.85;0.77;;;19.30;99.90;;;;;;5052897;28;20079;-81
2022/10/02 12:06:16;;;;;;;2.00;0.80;;;19.60;99.90;;;;;;5048928;28;20055;-81
2022/10/02 12:08:58;;;;;;;1.00;0.68;;;20.00;99.90;;;;;;5040046;28;20048;-80
2022/10/02 12:11:55;;;;;;;1.65;1.10;;;20.10;99.90;;;;;;5025648;28;20132;-80
2022/10/02 12:14:22;;;;;;;1.67;0.90;;;20.20;99.90;;;;;;5068250;28;20222;-81
2022/10/02 12:16:57;;;;;;;2.20;0.75;;;20.40;99.90;;;;;;5054077;28;20048;-81
2022/10/02 12:28:55;;;;;;;1.27;0.80;;;21.50;99.90;;;;;;5024426;28;20061;-81
2022/10/02 12:31:31;;;;;;;2.15;1.10;;;21.60;99.90;;;;;;5053399;28;20044;-89
2022/10/02 12:34:23;;;;;;;1.40;0.80;;;21.80;99.90;;;;;;5047218;28;20053;-88
2022/10/02 12:37:15;;;;;;;2.20;1.15;;;22.20;98.90;;;;;;5051861;28;20555;-88
2022/10/02 12:40:10;;;;;;;1.42;0.98;;;22.00;99.30;;;;;;5033341;28;20055;-88
2022/10/02 12:43:12;;;;;;;2.72;1.20;;;22.20;98.40;;;;;;5052068;28;20329;-89
2022/10/02 12:46:12;;;;;;;4.10;1.38;;;22.40;98.20;;;;;;5042279;28;20485;-90
2022/10/02 12:49:02;;;;;;;2.97;1.10;;;22.60;96.80;;;;;;5050212;28;20075;-91
2022/10/02 12:51:46;;;;;;;2.28;1.00;;;22.20;96.40;;;;;;5052731;28;20048;-91
2022/10/02 12:54:13;;;;;;;3.30;1.20;;;21.60;97.70;;;;;;5052393;28;20048;-90
2022/10/02 12:57:03;;;;;;;1.63;1.05;;;21.60;97.60;;;;;;5050359;28;20143;-90
2022/10/02 12:59:48;;;;;;;2.78;1.25;;;21.60;96.80;;;;;;5049574;28;20051;-91
2022/10/02 13:02:49;;;;;;;0.90;0.80;;;22.10;97.10;;;;;;5049199;28;20044;-89
2022/10/02 13:05:32;;;;;;;1.63;0.75;;;22.80;97.20;;;;;;5053792;28;20057;-92
2022/10/02 13:08:35;;;;;;;1.60;0.90;;;22.60;96.70;;;;;;5047552;28;20063;-91
2022/10/02 13:11:08;;;;;;;1.17;0.90;;;22.60;97.00;;;;;;5053353;28;20531;-90
2022/10/02 13:13:50;;;;;;;;;;;22.50;96.40;;;;;;5049141;28;20053;-87
2022/10/02 13:16:53;;;;;;;3.30;1.00;;;22.50;94.80;;;;;;5049700;28;19930;-89
2022/10/02 13:19:38;;;;;;;3.75;1.30;;;22.60;94.40;;;;;;5025449;28;20060;-88
2022/10/02 13:22:30;;;;;;;3.03;1.30;;;22.60;94.40;;;;;;5047920;28;20477;-88
2022/10/02 13:25:33;;;;;;;2.53;1.15;;;22.10;93.60;;;;;;5043199;28;20056;-87
2022/10/02 13:28:18;;;;;;;3.10;1.40;;;21.50;94.70;;;;;;5049459;28;20095;-87
2022/10/02 13:31:15;;;;;;;2.13;1.30;;;21.70;93.60;;;;;;5050438;28;20045;-88
2022/10/02 13:33:55;;;;;;;2.88;1.20;;;22.00;93.60;;;;;;5061830;28;20048;-88
2022/10/02 13:36:46;;;;;;;2.80;1.10;;;22.60;93.60;;;;;;5058866;28;20051;-87
2022/10/02 13:39:27;;;;;;;2.08;0.90;;;22.80;93.00;;;;;;5061073;28;20356;-87
2022/10/02 13:42:05;;;;;;;2.22;1.20;;;22.80;93.10;;;;;;5053561;28;20048;-87
2022/10/02 13:44:38;;;;;;;2.30;1.48;;;23.00;92.00;;;;;;5032127;28;20058;-87
2022/10/02 13:47:15;;;;;;;3.10;1.35;;;23.20;91.80;;;;;;5062801;28;20049;-87
2022/10/02 13:49:54;;;;;;;1.13;0.80;;;23.50;91.80;;;;;;5047144;28;20064;-88
2022/10/02 13:52:43;;;;;;;3.05;1.23;;;23.70;91.90;;;;;;5062428;28;20055;-86
2022/10/02 13:55:17;;;;;;;2.60;1.63;;;23.70;91.50;;;;;;5049557;28;20049;-86
2022/10/02 13:58:07;;;;;;;2.05;1.23;;;23.80;91.40;;;;;;5042945;28;20059;-88
2022/10/02 14:00:37;;;;;;;2.60;0.93;;;24.00;91.60;;;;;;5064770;28;20114;-87
2022/10/02 14:03:37;;;;;;;1.70;0.82;;;23.60;90.90;;;;;;5065499;28;20068;-87
2022/10/02 14:06:25;;;;;;;2.15;0.98;;;23.10;91.70;;;;;;5030559;28;20059;-91
2022/10/02 14:09:23;;;;;;;1.77;0.90;;;22.60;92.00;;;;;;5066399;28;20049;-92
2022/10/02 14:12:15;;;;;;;1.60;0.90;;;22.20;92.00;;;;;;5071363;28;20476;-90
2022/10/02 14:15:00;;;;;;;2.95;1.40;;;22.00;92.10;;;;;;5061756;28;20053;-91
2022/10/02 14:17:50;;;;;;;2.63;0.98;;;21.50;92.30;;;;;;5046621;28;20049;-90
2022/10/02 14:20:49;;;;;;;2.08;0.93;;;21.10;93.20;;;;;;5035423;28;20123;-89
2022/10/02 14:23:29;;;;;;;2.65;1.02;;;20.90;93.50;;;;;;5029903;28;20052;-90